sensor_id;sensor_type;location;lat;lon;timestamp;P1;durP1;ratioP1;P2;durP2;ratioP2
62740;SDS011;48790;55.656;37.702;2023-08-01T00:01:32;22.73;;;11.52;;
62740;SDS011;48790;55.656;37.702;2023-08-01T00:03:57;19.88;;;10.35;;
62740;SDS011;48790;55.656;37.702;2023-08-01T00:06:23;19.27;;;10.77;;
62740;SDS011;48790;55.656;37.702;2023-08-01T00:08:50;18.17;;;10.85;;
62740;SDS011;48790;55.656;37.702;2023-08-01T00:11:16;24.25;;;11.45;;
62740;SDS011;48790;55.656;37.702;2023-08-01T00:13:42;19.48;;;10.68;;
62740;SDS011;48790;55.656;37.702;2023-08-01T00:16:13;22.52;;;10.65;;
62740;SDS011;48790;55.656;37.702;2023-08-01T00:18:45;22.80;;;11.18;;
62740;SDS011;48790;55.656;37.702;2023-08-01T00:21:10;26.80;;;10.32;;
62740;SDS011;48790;55.656;37.702;2023-08-01T00:23:37;21.48;;;11.02;;
62740;SDS011;48790;55.656;37.702;2023-08-01T00:26:03;21.77;;;10.52;;
62740;SDS011;48790;55.656;37.702;2023-08-01T00:28:31;25.05;;;11.10;;
62740;SDS011;48790;55.656;37.702;2023-08-01T00:31:08;24.67;;;10.50;;
62740;SDS011;48790;55.656;37.702;2023-08-01T00:33:37;23.45;;;11.98;;
62740;SDS011;48790;55.656;37.702;2023-08-01T00:36:03;21.83;;;11.10;;
62740;SDS011;48790;55.656;37.702;2023-08-01T00:38:34;20.45;;;10.63;;
62740;SDS011;48790;55.656;37.702;2023-08-01T00:41:00;21.17;;;10.57;;
62740;SDS011;48790;55.656;37.702;2023-08-01T00:43:25;22.70;;;11.27;;
62740;SDS011;48790;55.656;37.702;2023-08-01T00:45:51;18.05;;;11.00;;
62740;SDS011;48790;55.656;37.702;2023-08-01T00:48:19;20.55;;;10.73;;
62740;SDS011;48790;55.656;37.702;2023-08-01T00:50:47;25.23;;;11.52;;
62740;SDS011;48790;55.656;37.702;2023-08-01T00:53:13;23.10;;;10.90;;
62740;SDS011;48790;55.656;37.702;2023-08-01T00:55:39;23.33;;;10.57;;
62740;SDS011;48790;55.656;37.702;2023-08-01T00:58:05;21.75;;;11.20;;
62740;SDS011;48790;55.656;37.702;2023-08-01T01:00:31;23.42;;;10.57;;
62740;SDS011;48790;55.656;37.702;2023-08-01T01:02:58;22.98;;;11.15;;
62740;SDS011;48790;55.656;37.702;2023-08-01T01:05:27;21.40;;;10.82;;
62740;SDS011;48790;55.656;37.702;2023-08-01T01:07:57;20.35;;;10.60;;
62740;SDS011;48790;55.656;37.702;2023-08-01T01:10:22;26.27;;;11.70;;
62740;SDS011;48790;55.656;37.702;2023-08-01T01:12:48;18.90;;;10.52;;
62740;SDS011;48790;55.656;37.702;2023-08-01T01:15:15;22.80;;;10.90;;
62740;SDS011;48790;55.656;37.702;2023-08-01T01:17:45;27.20;;;11.88;;
62740;SDS011;48790;55.656;37.702;2023-08-01T01:20:11;15.93;;;11.05;;
62740;SDS011;48790;55.656;37.702;2023-08-01T01:22:38;29.13;;;11.50;;
62740;SDS011;48790;55.656;37.702;2023-08-01T01:25:06;24.92;;;10.88;;
62740;SDS011;48790;55.656;37.702;2023-08-01T01:27:32;22.38;;;11.68;;
62740;SDS011;48790;55.656;37.702;2023-08-01T01:29:59;17.10;;;10.80;;
62740;SDS011;48790;55.656;37.702;2023-08-01T01:32:26;21.17;;;11.07;;
62740;SDS011;48790;55.656;37.702;2023-08-01T01:34:54;21.25;;;11.25;;
62740;SDS011;48790;55.656;37.702;2023-08-01T01:37:23;22.15;;;10.73;;
62740;SDS011;48790;55.656;37.702;2023-08-01T01:39:49;19.73;;;11.43;;
62740;SDS011;48790;55.656;37.702;2023-08-01T01:42:14;21.15;;;10.95;;
62740;SDS011;48790;55.656;37.702;2023-08-01T01:44:40;20.90;;;10.75;;
62740;SDS011;48790;55.656;37.702;2023-08-01T01:47:06;20.10;;;11.07;;
62740;SDS011;48790;55.656;37.702;2023-08-01T01:49:32;25.17;;;11.02;;
62740;SDS011;48790;55.656;37.702;2023-08-01T01:51:57;23.05;;;11.38;;
62740;SDS011;48790;55.656;37.702;2023-08-01T01:54:23;19.02;;;11.38;;
62740;SDS011;48790;55.656;37.702;2023-08-01T01:56:53;20.98;;;11.10;;
62740;SDS011;48790;55.656;37.702;2023-08-01T01:59:19;21.65;;;10.57;;
62740;SDS011;48790;55.656;37.702;2023-08-01T02:01:46;26.52;;;11.13;;
62740;SDS011;48790;55.656;37.702;2023-08-01T02:04:11;20.65;;;11.00;;
62740;SDS011;48790;55.656;37.702;2023-08-01T02:06:40;23.25;;;10.98;;
62740;SDS011;48790;55.656;37.702;2023-08-01T02:11:35;19.35;;;11.65;;
62740;SDS011;48790;55.656;37.702;2023-08-01T02:14:00;25.80;;;11.20;;
62740;SDS011;48790;55.656;37.702;2023-08-01T02:16:28;19.30;;;11.00;;
62740;SDS011;48790;55.656;37.702;2023-08-01T02:18:54;22.00;;;11.95;;
62740;SDS011;48790;55.656;37.702;2023-08-01T02:21:20;23.13;;;11.40;;
62740;SDS011;48790;55.656;37.702;2023-08-01T02:23:46;20.80;;;11.73;;
62740;SDS011;48790;55.656;37.702;2023-08-01T02:26:12;19.88;;;11.65;;
62740;SDS011;48790;55.656;37.702;2023-08-01T02:28:39;23.65;;;11.45;;
62740;SDS011;48790;55.656;37.702;2023-08-01T02:31:08;23.98;;;12.07;;
62740;SDS011;48790;55.656;37.702;2023-08-01T02:33:33;21.05;;;11.18;;
62740;SDS011;48790;55.656;37.702;2023-08-01T02:36:05;24.88;;;12.35;;
62740;SDS011;48790;55.656;37.702;2023-08-01T02:38:31;18.92;;;11.60;;
62740;SDS011;48790;55.656;37.702;2023-08-01T02:40:56;27.80;;;11.82;;
62740;SDS011;48790;55.656;37.702;2023-08-01T02:43:22;20.52;;;11.13;;
62740;SDS011;48790;55.656;37.702;2023-08-01T02:45:50;19.98;;;11.45;;
62740;SDS011;48790;55.656;37.702;2023-08-01T02:48:16;27.30;;;11.65;;
62740;SDS011;48790;55.656;37.702;2023-08-01T02:50:42;22.20;;;11.20;;
62740;SDS011;48790;55.656;37.702;2023-08-01T02:53:10;22.73;;;11.80;;
62740;SDS011;48790;55.656;37.702;2023-08-01T02:55:35;23.05;;;11.18;;
62740;SDS011;48790;55.656;37.702;2023-08-01T02:58:01;21.80;;;11.18;;
62740;SDS011;48790;55.656;37.702;2023-08-01T03:00:27;21.45;;;11.35;;
62740;SDS011;48790;55.656;37.702;2023-08-01T03:02:54;23.00;;;11.70;;
62740;SDS011;48790;55.656;37.702;2023-08-01T03:05:22;23.95;;;12.23;;
62740;SDS011;48790;55.656;37.702;2023-08-01T03:07:49;24.45;;;12.55;;
62740;SDS011;48790;55.656;37.702;2023-08-01T03:10:15;26.00;;;12.35;;
62740;SDS011;48790;55.656;37.702;2023-08-01T03:12:45;32.67;;;13.23;;
62740;SDS011;48790;55.656;37.702;2023-08-01T03:15:13;29.40;;;12.38;;
62740;SDS011;48790;55.656;37.702;2023-08-01T03:17:42;25.60;;;11.98;;
62740;SDS011;48790;55.656;37.702;2023-08-01T03:20:07;25.73;;;12.02;;
62740;SDS011;48790;55.656;37.702;2023-08-01T03:22:39;25.30;;;11.52;;
62740;SDS011;48790;55.656;37.702;2023-08-01T03:25:06;24.85;;;12.60;;
62740;SDS011;48790;55.656;37.702;2023-08-01T03:27:33;23.45;;;11.57;;
62740;SDS011;48790;55.656;37.702;2023-08-01T03:29:59;28.98;;;12.80;;
62740;SDS011;48790;55.656;37.702;2023-08-01T03:32:25;25.48;;;13.82;;
62740;SDS011;48790;55.656;37.702;2023-08-01T03:34:52;26.35;;;13.13;;
62740;SDS011;48790;55.656;37.702;2023-08-01T03:37:20;21.90;;;12.60;;
62740;SDS011;48790;55.656;37.702;2023-08-01T03:39:45;23.42;;;12.68;;
62740;SDS011;48790;55.656;37.702;2023-08-01T03:42:11;25.35;;;13.20;;
62740;SDS011;48790;55.656;37.702;2023-08-01T03:44:37;32.80;;;13.30;;
62740;SDS011;48790;55.656;37.702;2023-08-01T03:47:03;25.45;;;12.18;;
62740;SDS011;48790;55.656;37.702;2023-08-01T03:49:29;24.33;;;12.77;;
62740;SDS011;48790;55.656;37.702;2023-08-01T03:51:55;22.00;;;12.77;;
62740;SDS011;48790;55.656;37.702;2023-08-01T03:54:21;26.95;;;12.32;;
62740;SDS011;48790;55.656;37.702;2023-08-01T03:56:46;29.08;;;12.73;;
62740;SDS011;48790;55.656;37.702;2023-08-01T03:59:13;21.88;;;12.05;;
62740;SDS011;48790;55.656;37.702;2023-08-01T04:01:39;26.88;;;12.15;;
62740;SDS011;48790;55.656;37.702;2023-08-01T04:04:08;24.02;;;12.15;;
62740;SDS011;48790;55.656;37.702;2023-08-01T04:06:34;27.02;;;11.85;;
62740;SDS011;48790;55.656;37.702;2023-08-01T04:08:59;28.00;;;12.15;;
62740;SDS011;48790;55.656;37.702;2023-08-01T04:11:28;29.05;;;11.88;;
62740;SDS011;48790;55.656;37.702;2023-08-01T04:13:55;33.15;;;10.57;;
62740;SDS011;48790;55.656;37.702;2023-08-01T04:16:23;30.73;;;11.32;;
62740;SDS011;48790;55.656;37.702;2023-08-01T04:18:50;30.00;;;11.45;;
62740;SDS011;48790;55.656;37.702;2023-08-01T04:21:15;29.27;;;10.02;;
62740;SDS011;48790;55.656;37.702;2023-08-01T04:23:41;26.48;;;9.98;;
62740;SDS011;48790;55.656;37.702;2023-08-01T04:26:07;20.60;;;9.70;;
62740;SDS011;48790;55.656;37.702;2023-08-01T04:28:33;31.30;;;9.90;;
62740;SDS011;48790;55.656;37.702;2023-08-01T04:31:01;29.55;;;9.88;;
62740;SDS011;48790;55.656;37.702;2023-08-01T04:33:27;29.35;;;10.15;;
62740;SDS011;48790;55.656;37.702;2023-08-01T04:35:52;36.08;;;10.48;;
62740;SDS011;48790;55.656;37.702;2023-08-01T04:38:18;26.25;;;9.85;;
62740;SDS011;48790;55.656;37.702;2023-08-01T04:40:44;39.45;;;10.05;;
62740;SDS011;48790;55.656;37.702;2023-08-01T04:43:12;27.40;;;9.20;;
62740;SDS011;48790;55.656;37.702;2023-08-01T04:45:38;30.48;;;9.40;;
62740;SDS011;48790;55.656;37.702;2023-08-01T04:48:04;23.70;;;7.55;;
62740;SDS011;48790;55.656;37.702;2023-08-01T04:50:33;18.70;;;8.05;;
62740;SDS011;48790;55.656;37.702;2023-08-01T04:52:58;22.73;;;7.70;;
62740;SDS011;48790;55.656;37.702;2023-08-01T04:55:25;20.80;;;7.13;;
62740;SDS011;48790;55.656;37.702;2023-08-01T04:57:53;21.35;;;7.38;;
62740;SDS011;48790;55.656;37.702;2023-08-01T05:00:20;21.95;;;7.40;;
62740;SDS011;48790;55.656;37.702;2023-08-01T05:02:45;12.82;;;6.97;;
62740;SDS011;48790;55.656;37.702;2023-08-01T05:05:11;18.92;;;7.45;;
62740;SDS011;48790;55.656;37.702;2023-08-01T05:07:37;22.13;;;6.90;;
62740;SDS011;48790;55.656;37.702;2023-08-01T05:10:02;21.52;;;7.95;;
62740;SDS011;48790;55.656;37.702;2023-08-01T05:12:29;18.02;;;6.72;;
62740;SDS011;48790;55.656;37.702;2023-08-01T05:14:55;23.98;;;6.50;;
62740;SDS011;48790;55.656;37.702;2023-08-01T05:17:21;18.63;;;6.18;;
62740;SDS011;48790;55.656;37.702;2023-08-01T05:19:47;17.52;;;6.80;;
62740;SDS011;48790;55.656;37.702;2023-08-01T05:22:13;15.00;;;6.65;;
62740;SDS011;48790;55.656;37.702;2023-08-01T05:24:39;21.00;;;5.97;;
62740;SDS011;48790;55.656;37.702;2023-08-01T05:27:05;16.70;;;5.82;;
62740;SDS011;48790;55.656;37.702;2023-08-01T05:29:30;14.15;;;5.75;;
62740;SDS011;48790;55.656;37.702;2023-08-01T05:31:56;15.80;;;6.38;;
62740;SDS011;48790;55.656;37.702;2023-08-01T05:34:22;11.80;;;5.93;;
62740;SDS011;48790;55.656;37.702;2023-08-01T05:36:48;16.30;;;6.10;;
62740;SDS011;48790;55.656;37.702;2023-08-01T05:39:15;13.82;;;5.50;;
62740;SDS011;48790;55.656;37.702;2023-08-01T05:41:41;16.38;;;5.60;;
62740;SDS011;48790;55.656;37.702;2023-08-01T05:44:06;20.52;;;5.75;;
62740;SDS011;48790;55.656;37.702;2023-08-01T05:46:33;17.55;;;5.65;;
62740;SDS011;48790;55.656;37.702;2023-08-01T05:48:58;13.48;;;5.38;;
62740;SDS011;48790;55.656;37.702;2023-08-01T05:51:24;14.43;;;5.65;;
62740;SDS011;48790;55.656;37.702;2023-08-01T05:53:51;13.32;;;5.55;;
62740;SDS011;48790;55.656;37.702;2023-08-01T05:56:17;14.95;;;6.78;;
62740;SDS011;48790;55.656;37.702;2023-08-01T05:58:43;10.48;;;5.13;;
62740;SDS011;48790;55.656;37.702;2023-08-01T06:01:10;20.00;;;6.30;;
62740;SDS011;48790;55.656;37.702;2023-08-01T06:03:35;20.95;;;5.63;;
62740;SDS011;48790;55.656;37.702;2023-08-01T06:06:01;11.32;;;4.68;;
62740;SDS011;48790;55.656;37.702;2023-08-01T06:08:27;11.80;;;5.40;;
62740;SDS011;48790;55.656;37.702;2023-08-01T06:10:52;12.93;;;4.90;;
62740;SDS011;48790;55.656;37.702;2023-08-01T06:13:18;7.38;;;4.60;;
62740;SDS011;48790;55.656;37.702;2023-08-01T06:15:44;8.90;;;3.97;;
62740;SDS011;48790;55.656;37.702;2023-08-01T06:18:10;10.68;;;4.22;;
62740;SDS011;48790;55.656;37.702;2023-08-01T06:20:37;10.85;;;4.53;;
62740;SDS011;48790;55.656;37.702;2023-08-01T06:23:05;9.15;;;3.60;;
62740;SDS011;48790;55.656;37.702;2023-08-01T06:25:31;9.60;;;3.75;;
62740;SDS011;48790;55.656;37.702;2023-08-01T06:27:57;5.15;;;3.65;;
62740;SDS011;48790;55.656;37.702;2023-08-01T06:30:22;9.10;;;4.18;;
62740;SDS011;48790;55.656;37.702;2023-08-01T06:32:48;9.88;;;3.42;;
62740;SDS011;48790;55.656;37.702;2023-08-01T06:35:17;11.10;;;3.63;;
62740;SDS011;48790;55.656;37.702;2023-08-01T06:37:43;10.82;;;3.90;;
62740;SDS011;48790;55.656;37.702;2023-08-01T06:40:09;10.57;;;3.90;;
62740;SDS011;48790;55.656;37.702;2023-08-01T06:42:35;8.63;;;3.13;;
62740;SDS011;48790;55.656;37.702;2023-08-01T06:45:00;8.35;;;3.75;;
62740;SDS011;48790;55.656;37.702;2023-08-01T06:47:26;8.20;;;3.40;;
62740;SDS011;48790;55.656;37.702;2023-08-01T06:50:10;5.00;;;3.50;;
62740;SDS011;48790;55.656;37.702;2023-08-01T06:52:36;13.43;;;3.50;;
62740;SDS011;48790;55.656;37.702;2023-08-01T06:55:02;6.97;;;3.40;;
62740;SDS011;48790;55.656;37.702;2023-08-01T06:57:28;4.13;;;3.10;;
62740;SDS011;48790;55.656;37.702;2023-08-01T06:59:54;7.55;;;3.35;;
62740;SDS011;48790;55.656;37.702;2023-08-01T07:02:20;6.22;;;3.08;;
62740;SDS011;48790;55.656;37.702;2023-08-01T07:04:48;6.60;;;3.20;;
62740;SDS011;48790;55.656;37.702;2023-08-01T07:07:13;8.20;;;3.28;;
62740;SDS011;48790;55.656;37.702;2023-08-01T07:09:39;10.63;;;3.00;;
62740;SDS011;48790;55.656;37.702;2023-08-01T07:12:05;4.57;;;2.63;;
62740;SDS011;48790;55.656;37.702;2023-08-01T07:14:31;4.47;;;2.80;;
62740;SDS011;48790;55.656;37.702;2023-08-01T07:16:58;13.15;;;2.80;;
62740;SDS011;48790;55.656;37.702;2023-08-01T07:19:25;9.30;;;2.42;;
62740;SDS011;48790;55.656;37.702;2023-08-01T07:21:50;4.55;;;2.60;;
62740;SDS011;48790;55.656;37.702;2023-08-01T07:24:16;4.50;;;2.58;;
62740;SDS011;48790;55.656;37.702;2023-08-01T07:26:42;4.07;;;2.50;;
62740;SDS011;48790;55.656;37.702;2023-08-01T07:29:07;4.35;;;2.67;;
62740;SDS011;48790;55.656;37.702;2023-08-01T07:31:35;6.78;;;3.10;;
62740;SDS011;48790;55.656;37.702;2023-08-01T07:34:06;7.33;;;2.83;;
62740;SDS011;48790;55.656;37.702;2023-08-01T07:36:31;5.05;;;2.75;;
62740;SDS011;48790;55.656;37.702;2023-08-01T07:38:57;5.25;;;3.03;;
62740;SDS011;48790;55.656;37.702;2023-08-01T07:41:23;7.40;;;2.58;;
62740;SDS011;48790;55.656;37.702;2023-08-01T07:43:48;7.85;;;2.85;;
62740;SDS011;48790;55.656;37.702;2023-08-01T07:46:14;4.50;;;2.63;;
62740;SDS011;48790;55.656;37.702;2023-08-01T07:48:40;12.38;;;2.95;;
62740;SDS011;48790;55.656;37.702;2023-08-01T07:51:10;4.80;;;2.47;;
62740;SDS011;48790;55.656;37.702;2023-08-01T07:53:37;4.30;;;2.25;;
62740;SDS011;48790;55.656;37.702;2023-08-01T07:56:05;6.22;;;2.50;;
62740;SDS011;48790;55.656;37.702;2023-08-01T07:58:34;9.45;;;2.55;;
62740;SDS011;48790;55.656;37.702;2023-08-01T08:01:04;4.78;;;2.67;;
62740;SDS011;48790;55.656;37.702;2023-08-01T08:03:33;4.18;;;2.70;;
62740;SDS011;48790;55.656;37.702;2023-08-01T08:05:59;8.00;;;2.70;;
62740;SDS011;48790;55.656;37.702;2023-08-01T08:08:24;7.38;;;2.65;;
62740;SDS011;48790;55.656;37.702;2023-08-01T08:10:50;4.80;;;2.90;;
62740;SDS011;48790;55.656;37.702;2023-08-01T08:13:16;3.35;;;2.28;;
62740;SDS011;48790;55.656;37.702;2023-08-01T08:15:45;6.63;;;2.60;;
62740;SDS011;48790;55.656;37.702;2023-08-01T08:18:11;7.13;;;2.50;;
62740;SDS011;48790;55.656;37.702;2023-08-01T08:20:44;7.78;;;2.63;;
62740;SDS011;48790;55.656;37.702;2023-08-01T08:23:11;8.35;;;2.72;;
62740;SDS011;48790;55.656;37.702;2023-08-01T08:25:39;15.82;;;3.65;;
62740;SDS011;48790;55.656;37.702;2023-08-01T08:28:08;7.38;;;2.88;;
62740;SDS011;48790;55.656;37.702;2023-08-01T08:30:35;10.55;;;2.60;;
62740;SDS011;48790;55.656;37.702;2023-08-01T08:33:01;4.82;;;2.50;;
62740;SDS011;48790;55.656;37.702;2023-08-01T08:35:30;7.55;;;2.92;;
62740;SDS011;48790;55.656;37.702;2023-08-01T08:37:57;5.13;;;2.65;;
62740;SDS011;48790;55.656;37.702;2023-08-01T08:40:23;8.68;;;3.13;;
62740;SDS011;48790;55.656;37.702;2023-08-01T08:42:52;7.20;;;3.10;;
62740;SDS011;48790;55.656;37.702;2023-08-01T08:45:18;8.02;;;2.90;;
62740;SDS011;48790;55.656;37.702;2023-08-01T08:47:44;8.45;;;2.85;;
62740;SDS011;48790;55.656;37.702;2023-08-01T08:50:10;9.55;;;3.35;;
62740;SDS011;48790;55.656;37.702;2023-08-01T08:52:37;5.30;;;2.83;;
62740;SDS011;48790;55.656;37.702;2023-08-01T08:55:05;3.80;;;2.70;;
62740;SDS011;48790;55.656;37.702;2023-08-01T08:57:32;10.43;;;3.97;;
62740;SDS011;48790;55.656;37.702;2023-08-01T08:59:59;10.70;;;3.08;;
62740;SDS011;48790;55.656;37.702;2023-08-01T09:02:25;6.80;;;2.58;;
62740;SDS011;48790;55.656;37.702;2023-08-01T09:04:53;9.18;;;3.00;;
62740;SDS011;48790;55.656;37.702;2023-08-01T09:07:19;12.98;;;3.28;;
62740;SDS011;48790;55.656;37.702;2023-08-01T09:09:45;10.32;;;3.10;;
62740;SDS011;48790;55.656;37.702;2023-08-01T09:12:10;10.07;;;3.35;;
62740;SDS011;48790;55.656;37.702;2023-08-01T09:14:37;6.65;;;3.17;;
62740;SDS011;48790;55.656;37.702;2023-08-01T09:17:06;9.68;;;3.05;;
62740;SDS011;48790;55.656;37.702;2023-08-01T09:19:33;13.73;;;3.40;;
62740;SDS011;48790;55.656;37.702;2023-08-01T09:21:58;6.97;;;3.35;;
62740;SDS011;48790;55.656;37.702;2023-08-01T09:24:24;8.27;;;3.22;;
62740;SDS011;48790;55.656;37.702;2023-08-01T09:27:01;5.78;;;4.13;;
62740;SDS011;48790;55.656;37.702;2023-08-01T09:29:28;12.95;;;3.38;;
62740;SDS011;48790;55.656;37.702;2023-08-01T09:31:54;5.15;;;3.22;;
62740;SDS011;48790;55.656;37.702;2023-08-01T09:34:21;6.40;;;3.72;;
62740;SDS011;48790;55.656;37.702;2023-08-01T09:36:47;12.50;;;3.70;;
62740;SDS011;48790;55.656;37.702;2023-08-01T09:39:20;15.82;;;3.60;;
62740;SDS011;48790;55.656;37.702;2023-08-01T09:41:46;7.22;;;3.80;;
62740;SDS011;48790;55.656;37.702;2023-08-01T09:44:14;11.20;;;3.85;;
62740;SDS011;48790;55.656;37.702;2023-08-01T09:46:40;10.30;;;3.88;;
62740;SDS011;48790;55.656;37.702;2023-08-01T09:49:08;11.05;;;4.28;;
62740;SDS011;48790;55.656;37.702;2023-08-01T09:51:47;9.48;;;3.92;;
62740;SDS011;48790;55.656;37.702;2023-08-01T09:54:16;11.38;;;3.50;;
62740;SDS011;48790;55.656;37.702;2023-08-01T09:56:45;12.65;;;4.40;;
62740;SDS011;48790;55.656;37.702;2023-08-01T09:59:20;8.68;;;4.10;;
62740;SDS011;48790;55.656;37.702;2023-08-01T10:01:47;10.13;;;3.85;;
62740;SDS011;48790;55.656;37.702;2023-08-01T10:04:12;13.30;;;3.70;;
62740;SDS011;48790;55.656;37.702;2023-08-01T10:06:41;7.10;;;3.50;;
62740;SDS011;48790;55.656;37.702;2023-08-01T10:09:10;5.30;;;3.67;;
62740;SDS011;48790;55.656;37.702;2023-08-01T10:11:36;10.70;;;3.70;;
62740;SDS011;48790;55.656;37.702;2023-08-01T10:14:04;6.47;;;3.40;;
62740;SDS011;48790;55.656;37.702;2023-08-01T10:16:31;8.73;;;3.70;;
62740;SDS011;48790;55.656;37.702;2023-08-01T10:18:57;7.53;;;3.70;;
62740;SDS011;48790;55.656;37.702;2023-08-01T10:23:54;9.15;;;3.95;;
62740;SDS011;48790;55.656;37.702;2023-08-01T10:26:22;6.63;;;3.70;;
62740;SDS011;48790;55.656;37.702;2023-08-01T10:28:52;7.22;;;3.70;;
62740;SDS011;48790;55.656;37.702;2023-08-01T10:31:18;11.90;;;3.95;;
62740;SDS011;48790;55.656;37.702;2023-08-01T10:33:47;8.35;;;3.53;;
62740;SDS011;48790;55.656;37.702;2023-08-01T10:36:19;8.82;;;3.70;;
62740;SDS011;48790;55.656;37.702;2023-08-01T10:38:50;4.82;;;3.50;;
62740;SDS011;48790;55.656;37.702;2023-08-01T10:41:25;10.52;;;3.53;;
62740;SDS011;48790;55.656;37.702;2023-08-01T10:43:52;7.50;;;3.72;;
62740;SDS011;48790;55.656;37.702;2023-08-01T10:46:18;8.90;;;3.67;;
62740;SDS011;48790;55.656;37.702;2023-08-01T10:48:48;9.70;;;3.60;;
62740;SDS011;48790;55.656;37.702;2023-08-01T10:51:14;7.65;;;3.65;;
62740;SDS011;48790;55.656;37.702;2023-08-01T10:53:39;13.77;;;4.45;;
62740;SDS011;48790;55.656;37.702;2023-08-01T10:56:05;7.43;;;3.40;;
62740;SDS011;48790;55.656;37.702;2023-08-01T10:58:31;9.73;;;3.50;;
62740;SDS011;48790;55.656;37.702;2023-08-01T11:00:57;9.30;;;3.50;;
62740;SDS011;48790;55.656;37.702;2023-08-01T11:03:23;8.65;;;3.67;;
62740;SDS011;48790;55.656;37.702;2023-08-01T11:05:58;10.80;;;3.45;;
62740;SDS011;48790;55.656;37.702;2023-08-01T11:08:33;5.13;;;3.40;;
62740;SDS011;48790;55.656;37.702;2023-08-01T11:10:59;5.45;;;3.25;;
62740;SDS011;48790;55.656;37.702;2023-08-01T11:13:27;10.10;;;3.60;;
62740;SDS011;48790;55.656;37.702;2023-08-01T11:15:54;8.75;;;3.30;;
62740;SDS011;48790;55.656;37.702;2023-08-01T11:18:21;11.27;;;3.70;;
62740;SDS011;48790;55.656;37.702;2023-08-01T11:20:47;6.20;;;3.40;;
62740;SDS011;48790;55.656;37.702;2023-08-01T11:23:13;6.35;;;3.63;;
62740;SDS011;48790;55.656;37.702;2023-08-01T11:25:40;6.63;;;3.22;;
62740;SDS011;48790;55.656;37.702;2023-08-01T11:28:15;6.03;;;3.42;;
62740;SDS011;48790;55.656;37.702;2023-08-01T11:30:41;6.97;;;3.47;;
62740;SDS011;48790;55.656;37.702;2023-08-01T11:33:17;6.80;;;3.47;;
62740;SDS011;48790;55.656;37.702;2023-08-01T11:35:50;7.80;;;3.67;;
62740;SDS011;48790;55.656;37.702;2023-08-01T11:38:20;7.65;;;3.70;;
62740;SDS011;48790;55.656;37.702;2023-08-01T11:40:47;12.98;;;3.95;;
62740;SDS011;48790;55.656;37.702;2023-08-01T11:43:15;8.18;;;3.65;;
62740;SDS011;48790;55.656;37.702;2023-08-01T11:45:54;5.03;;;3.80;;
62740;SDS011;48790;55.656;37.702;2023-08-01T11:48:23;10.77;;;4.22;;
62740;SDS011;48790;55.656;37.702;2023-08-01T11:50:56;7.18;;;3.72;;
62740;SDS011;48790;55.656;37.702;2023-08-01T11:53:24;9.48;;;4.28;;
62740;SDS011;48790;55.656;37.702;2023-08-01T11:55:50;11.73;;;4.10;;
62740;SDS011;48790;55.656;37.702;2023-08-01T11:58:28;9.43;;;3.92;;
62740;SDS011;48790;55.656;37.702;2023-08-01T12:01:12;6.53;;;3.90;;
62740;SDS011;48790;55.656;37.702;2023-08-01T12:03:45;8.98;;;3.75;;
62740;SDS011;48790;55.656;37.702;2023-08-01T12:06:14;4.88;;;3.30;;
62740;SDS011;48790;55.656;37.702;2023-08-01T12:11:27;10.07;;;3.70;;
62740;SDS011;48790;55.656;37.702;2023-08-01T12:16:35;8.20;;;4.00;;
62740;SDS011;48790;55.656;37.702;2023-08-01T12:19:01;6.30;;;4.38;;
62740;SDS011;48790;55.656;37.702;2023-08-01T12:21:27;7.32;;;3.85;;
62740;SDS011;48790;55.656;37.702;2023-08-01T12:23:52;5.90;;;3.83;;
62740;SDS011;48790;55.656;37.702;2023-08-01T12:26:22;5.90;;;4.00;;
62740;SDS011;48790;55.656;37.702;2023-08-01T12:28:47;5.65;;;3.60;;
62740;SDS011;48790;55.656;37.702;2023-08-01T12:31:16;7.85;;;3.40;;
62740;SDS011;48790;55.656;37.702;2023-08-01T12:33:46;8.23;;;3.97;;
62740;SDS011;48790;55.656;37.702;2023-08-01T12:36:12;9.45;;;4.15;;
62740;SDS011;48790;55.656;37.702;2023-08-01T12:38:38;10.57;;;4.03;;
62740;SDS011;48790;55.656;37.702;2023-08-01T12:41:04;5.32;;;3.88;;
62740;SDS011;48790;55.656;37.702;2023-08-01T12:43:30;9.65;;;4.20;;
62740;SDS011;48790;55.656;37.702;2023-08-01T12:45:55;11.95;;;3.60;;
62740;SDS011;48790;55.656;37.702;2023-08-01T12:48:24;7.43;;;4.05;;
62740;SDS011;48790;55.656;37.702;2023-08-01T12:50:49;9.13;;;4.32;;
62740;SDS011;48790;55.656;37.702;2023-08-01T12:53:20;5.70;;;3.70;;
62740;SDS011;48790;55.656;37.702;2023-08-01T12:55:50;8.85;;;4.30;;
62740;SDS011;48790;55.656;37.702;2023-08-01T12:58:20;7.55;;;3.97;;
62740;SDS011;48790;55.656;37.702;2023-08-01T13:00:49;7.00;;;4.07;;
62740;SDS011;48790;55.656;37.702;2023-08-01T13:03:17;10.68;;;4.43;;
62740;SDS011;48790;55.656;37.702;2023-08-01T13:05:43;6.43;;;3.50;;
62740;SDS011;48790;55.656;37.702;2023-08-01T13:08:09;7.88;;;3.60;;
62740;SDS011;48790;55.656;37.702;2023-08-01T13:10:38;8.05;;;3.88;;
62740;SDS011;48790;55.656;37.702;2023-08-01T13:13:04;22.80;;;4.07;;
62740;SDS011;48790;55.656;37.702;2023-08-01T13:15:32;8.98;;;3.58;;
62740;SDS011;48790;55.656;37.702;2023-08-01T13:17:59;11.68;;;3.72;;
62740;SDS011;48790;55.656;37.702;2023-08-01T13:20:24;7.22;;;3.72;;
62740;SDS011;48790;55.656;37.702;2023-08-01T13:22:53;9.43;;;4.25;;
62740;SDS011;48790;55.656;37.702;2023-08-01T13:25:26;10.65;;;3.65;;
62740;SDS011;48790;55.656;37.702;2023-08-01T13:27:52;6.05;;;3.95;;
62740;SDS011;48790;55.656;37.702;2023-08-01T13:30:18;3.97;;;3.35;;
62740;SDS011;48790;55.656;37.702;2023-08-01T13:32:44;4.82;;;3.45;;
62740;SDS011;48790;55.656;37.702;2023-08-01T13:35:15;7.25;;;3.70;;
62740;SDS011;48790;55.656;37.702;2023-08-01T13:37:43;5.95;;;4.05;;
62740;SDS011;48790;55.656;37.702;2023-08-01T13:40:10;9.23;;;3.50;;
62740;SDS011;48790;55.656;37.702;2023-08-01T13:42:50;13.20;;;3.90;;
62740;SDS011;48790;55.656;37.702;2023-08-01T13:45:17;5.22;;;4.07;;
62740;SDS011;48790;55.656;37.702;2023-08-01T13:47:44;6.00;;;3.30;;
62740;SDS011;48790;55.656;37.702;2023-08-01T13:50:10;6.72;;;3.40;;
62740;SDS011;48790;55.656;37.702;2023-08-01T13:52:39;13.48;;;3.60;;
62740;SDS011;48790;55.656;37.702;2023-08-01T13:55:04;7.03;;;3.47;;
62740;SDS011;48790;55.656;37.702;2023-08-01T13:57:32;8.20;;;3.20;;
62740;SDS011;48790;55.656;37.702;2023-08-01T13:59:58;6.63;;;3.65;;
62740;SDS011;48790;55.656;37.702;2023-08-01T14:02:24;5.15;;;3.45;;
62740;SDS011;48790;55.656;37.702;2023-08-01T14:04:53;5.63;;;3.22;;
62740;SDS011;48790;55.656;37.702;2023-08-01T14:07:22;9.50;;;3.63;;
62740;SDS011;48790;55.656;37.702;2023-08-01T14:09:48;6.57;;;3.70;;
62740;SDS011;48790;55.656;37.702;2023-08-01T14:12:15;6.47;;;3.40;;
62740;SDS011;48790;55.656;37.702;2023-08-01T14:14:44;4.43;;;3.58;;
62740;SDS011;48790;55.656;37.702;2023-08-01T14:17:10;7.00;;;3.65;;
62740;SDS011;48790;55.656;37.702;2023-08-01T14:19:35;8.23;;;3.78;;
62740;SDS011;48790;55.656;37.702;2023-08-01T14:22:01;5.55;;;3.38;;
62740;SDS011;48790;55.656;37.702;2023-08-01T14:24:28;6.65;;;3.72;;
62740;SDS011;48790;55.656;37.702;2023-08-01T14:26:53;6.22;;;3.80;;
62740;SDS011;48790;55.656;37.702;2023-08-01T14:29:19;6.25;;;3.40;;
62740;SDS011;48790;55.656;37.702;2023-08-01T14:31:54;20.88;;;4.07;;
62740;SDS011;48790;55.656;37.702;2023-08-01T14:34:22;10.38;;;3.40;;